sensor_id;sensor_type;location;lat;lon;timestamp;P1;durP1;ratioP1;P2;durP2;ratioP2
4889;SDS011;2459;42.268;23.112;2022-10-03T00:01:45;11.70;;;3.07;;
4889;SDS011;2459;42.268;23.112;2022-10-03T00:04:18;3.80;;;2.63;;
4889;SDS011;2459;42.268;23.112;2022-10-03T00:06:50;8.40;;;3.63;;
4889;SDS011;2459;42.268;23.112;2022-10-03T00:09:32;6.07;;;3.80;;
4889;SDS011;2459;42.268;23.112;2022-10-03T00:12:08;7.97;;;3.17;;
4889;SDS011;2459;42.268;23.112;2022-10-03T00:14:39;7.33;;;2.60;;
4889;SDS011;2459;42.268;23.112;2022-10-03T00:17:09;7.77;;;2.40;;
4889;SDS011;2459;42.268;23.112;2022-10-03T00:19:41;7.40;;;3.40;;
4889;SDS011;2459;42.268;23.112;2022-10-03T00:22:12;4.07;;;2.57;;
4889;SDS011;2459;42.268;23.112;2022-10-03T00:24:46;4.07;;;2.50;;
4889;SDS011;2459;42.268;23.112;2022-10-03T00:27:18;19.50;;;2.87;;
4889;SDS011;2459;42.268;23.112;2022-10-03T00:32:44;4.83;;;2.40;;
4889;SDS011;2459;42.268;23.112;2022-10-03T00:35:14;8.17;;;2.63;;
4889;SDS011;2459;42.268;23.112;2022-10-03T00:37:44;6.70;;;2.70;;
4889;SDS011;2459;42.268;23.112;2022-10-03T00:43:28;10.40;;;2.57;;
4889;SDS011;2459;42.268;23.112;2022-10-03T00:46:02;13.60;;;3.10;;
4889;SDS011;2459;42.268;23.112;2022-10-03T00:48:37;13.53;;;9.17;;
4889;SDS011;2459;42.268;23.112;2022-10-03T00:51:08;8.47;;;5.27;;
4889;SDS011;2459;42.268;23.112;2022-10-03T00:53:43;7.93;;;4.43;;
4889;SDS011;2459;42.268;23.112;2022-10-03T00:56:16;6.30;;;4.03;;
4889;SDS011;2459;42.268;23.112;2022-10-03T00:58:50;13.77;;;7.10;;
4889;SDS011;2459;42.268;23.112;2022-10-03T01:01:20;14.43;;;6.40;;
4889;SDS011;2459;42.268;23.112;2022-10-03T01:03:52;13.43;;;6.40;;
4889;SDS011;2459;42.268;23.112;2022-10-03T01:06:24;9.20;;;6.90;;
4889;SDS011;2459;42.268;23.112;2022-10-03T01:09:00;15.30;;;7.10;;
4889;SDS011;2459;42.268;23.112;2022-10-03T01:11:36;15.73;;;4.67;;
4889;SDS011;2459;42.268;23.112;2022-10-03T01:14:10;10.43;;;5.90;;
4889;SDS011;2459;42.268;23.112;2022-10-03T01:16:42;10.73;;;6.47;;
4889;SDS011;2459;42.268;23.112;2022-10-03T01:19:19;13.00;;;8.80;;
4889;SDS011;2459;42.268;23.112;2022-10-03T01:21:56;14.83;;;5.60;;
4889;SDS011;2459;42.268;23.112;2022-10-03T01:27:12;9.63;;;5.87;;
4889;SDS011;2459;42.268;23.112;2022-10-03T01:29:44;9.30;;;5.43;;
4889;SDS011;2459;42.268;23.112;2022-10-03T01:32:32;21.93;;;5.80;;
4889;SDS011;2459;42.268;23.112;2022-10-03T01:35:05;14.17;;;6.37;;
4889;SDS011;2459;42.268;23.112;2022-10-03T01:37:39;8.63;;;5.37;;
4889;SDS011;2459;42.268;23.112;2022-10-03T01:40:12;8.90;;;4.63;;
4889;SDS011;2459;42.268;23.112;2022-10-03T01:42:43;7.90;;;3.70;;
4889;SDS011;2459;42.268;23.112;2022-10-03T01:45:20;6.37;;;5.03;;
4889;SDS011;2459;42.268;23.112;2022-10-03T01:47:51;12.60;;;6.30;;
4889;SDS011;2459;42.268;23.112;2022-10-03T01:50:20;9.40;;;4.03;;
4889;SDS011;2459;42.268;23.112;2022-10-03T01:52:51;9.60;;;4.63;;
4889;SDS011;2459;42.268;23.112;2022-10-03T01:55:19;11.70;;;5.63;;
4889;SDS011;2459;42.268;23.112;2022-10-03T01:57:48;15.60;;;5.70;;
4889;SDS011;2459;42.268;23.112;2022-10-03T02:00:21;7.00;;;3.40;;
4889;SDS011;2459;42.268;23.112;2022-10-03T02:02:49;19.07;;;7.03;;
4889;SDS011;2459;42.268;23.112;2022-10-03T02:05:19;10.57;;;6.50;;
4889;SDS011;2459;42.268;23.112;2022-10-03T02:07:49;8.10;;;3.70;;
4889;SDS011;2459;42.268;23.112;2022-10-03T02:10:18;11.03;;;7.67;;
4889;SDS011;2459;42.268;23.112;2022-10-03T02:12:48;6.87;;;4.83;;
4889;SDS011;2459;42.268;23.112;2022-10-03T02:15:17;6.00;;;4.37;;
4889;SDS011;2459;42.268;23.112;2022-10-03T02:17:48;5.03;;;4.40;;
4889;SDS011;2459;42.268;23.112;2022-10-03T02:20:19;8.27;;;4.10;;
4889;SDS011;2459;42.268;23.112;2022-10-03T02:22:50;16.13;;;4.27;;
4889;SDS011;2459;42.268;23.112;2022-10-03T02:25:19;4.10;;;2.97;;
4889;SDS011;2459;42.268;23.112;2022-10-03T02:27:50;5.37;;;3.33;;
4889;SDS011;2459;42.268;23.112;2022-10-03T02:30:24;7.87;;;4.27;;
4889;SDS011;2459;42.268;23.112;2022-10-03T02:38:27;24.13;;;7.43;;
4889;SDS011;2459;42.268;23.112;2022-10-03T02:49:26;15.73;;;6.67;;
4889;SDS011;2459;42.268;23.112;2022-10-03T02:52:09;6.50;;;4.43;;
4889;SDS011;2459;42.268;23.112;2022-10-03T02:54:54;6.40;;;3.47;;
4889;SDS011;2459;42.268;23.112;2022-10-03T03:00:10;28.20;;;9.00;;
4889;SDS011;2459;42.268;23.112;2022-10-03T03:02:49;16.70;;;6.43;;
4889;SDS011;2459;42.268;23.112;2022-10-03T03:05:32;23.77;;;4.73;;
4889;SDS011;2459;42.268;23.112;2022-10-03T03:08:11;11.60;;;5.87;;
4889;SDS011;2459;42.268;23.112;2022-10-03T03:10:51;8.70;;;3.83;;
4889;SDS011;2459;42.268;23.112;2022-10-03T03:13:44;21.37;;;4.70;;
4889;SDS011;2459;42.268;23.112;2022-10-03T03:19:15;9.17;;;4.37;;
4889;SDS011;2459;42.268;23.112;2022-10-03T03:21:46;4.70;;;3.43;;
4889;SDS011;2459;42.268;23.112;2022-10-03T03:24:20;3.33;;;2.40;;
4889;SDS011;2459;42.268;23.112;2022-10-03T03:26:57;11.50;;;3.30;;
4889;SDS011;2459;42.268;23.112;2022-10-03T03:29:28;17.57;;;5.67;;
4889;SDS011;2459;42.268;23.112;2022-10-03T03:31:57;6.50;;;4.13;;
4889;SDS011;2459;42.268;23.112;2022-10-03T03:34:29;8.13;;;3.10;;
4889;SDS011;2459;42.268;23.112;2022-10-03T03:36:59;17.80;;;3.80;;
4889;SDS011;2459;42.268;23.112;2022-10-03T03:39:37;13.70;;;4.40;;
4889;SDS011;2459;42.268;23.112;2022-10-03T03:42:20;9.40;;;4.37;;
4889;SDS011;2459;42.268;23.112;2022-10-03T03:44:55;10.90;;;3.60;;
4889;SDS011;2459;42.268;23.112;2022-10-03T03:47:42;12.23;;;4.83;;
4889;SDS011;2459;42.268;23.112;2022-10-03T03:53:02;6.53;;;3.87;;
4889;SDS011;2459;42.268;23.112;2022-10-03T03:55:38;5.43;;;4.03;;
4889;SDS011;2459;42.268;23.112;2022-10-03T03:58:14;16.67;;;3.90;;
4889;SDS011;2459;42.268;23.112;2022-10-03T04:03:33;12.90;;;3.80;;
4889;SDS011;2459;42.268;23.112;2022-10-03T04:06:07;9.57;;;3.83;;
4889;SDS011;2459;42.268;23.112;2022-10-03T04:08:40;7.30;;;4.03;;
4889;SDS011;2459;42.268;23.112;2022-10-03T04:11:15;5.03;;;3.23;;
4889;SDS011;2459;42.268;23.112;2022-10-03T04:13:49;11.40;;;5.27;;
4889;SDS011;2459;42.268;23.112;2022-10-03T04:16:22;17.40;;;6.87;;
4889;SDS011;2459;42.268;23.112;2022-10-03T04:19:05;5.27;;;4.60;;
4889;SDS011;2459;42.268;23.112;2022-10-03T04:21:38;8.27;;;4.53;;
4889;SDS011;2459;42.268;23.112;2022-10-03T04:24:11;8.40;;;5.30;;
4889;SDS011;2459;42.268;23.112;2022-10-03T04:26:46;17.77;;;4.30;;
4889;SDS011;2459;42.268;23.112;2022-10-03T04:29:32;13.00;;;4.20;;
4889;SDS011;2459;42.268;23.112;2022-10-03T04:32:07;15.73;;;3.83;;
4889;SDS011;2459;42.268;23.112;2022-10-03T04:34:39;13.20;;;4.10;;
4889;SDS011;2459;42.268;23.112;2022-10-03T04:37:12;11.37;;;4.10;;
4889;SDS011;2459;42.268;23.112;2022-10-03T04:39:43;7.57;;;3.87;;
4889;SDS011;2459;42.268;23.112;2022-10-03T04:42:12;6.13;;;3.90;;
4889;SDS011;2459;42.268;23.112;2022-10-03T04:44:53;11.93;;;4.23;;
4889;SDS011;2459;42.268;23.112;2022-10-03T04:47:24;10.93;;;5.00;;
4889;SDS011;2459;42.268;23.112;2022-10-03T04:49:54;14.50;;;7.70;;
4889;SDS011;2459;42.268;23.112;2022-10-03T04:52:24;9.57;;;5.10;;
4889;SDS011;2459;42.268;23.112;2022-10-03T04:55:00;9.80;;;4.80;;
4889;SDS011;2459;42.268;23.112;2022-10-03T04:57:35;7.50;;;4.20;;
4889;SDS011;2459;42.268;23.112;2022-10-03T05:00:19;19.20;;;5.50;;
4889;SDS011;2459;42.268;23.112;2022-10-03T05:02:49;16.10;;;5.60;;
4889;SDS011;2459;42.268;23.112;2022-10-03T05:05:20;7.90;;;6.20;;
4889;SDS011;2459;42.268;23.112;2022-10-03T05:07:49;14.13;;;3.97;;
4889;SDS011;2459;42.268;23.112;2022-10-03T05:10:21;21.60;;;4.40;;
4889;SDS011;2459;42.268;23.112;2022-10-03T05:12:52;14.60;;;4.73;;
4889;SDS011;2459;42.268;23.112;2022-10-03T05:15:24;10.73;;;4.93;;
4889;SDS011;2459;42.268;23.112;2022-10-03T05:17:54;10.33;;;5.27;;
4889;SDS011;2459;42.268;23.112;2022-10-03T05:20:27;9.73;;;4.67;;
4889;SDS011;2459;42.268;23.112;2022-10-03T05:22:59;17.87;;;6.90;;
4889;SDS011;2459;42.268;23.112;2022-10-03T05:25:30;14.63;;;4.70;;
4889;SDS011;2459;42.268;23.112;2022-10-03T05:28:04;8.33;;;4.50;;
4889;SDS011;2459;42.268;23.112;2022-10-03T05:30:38;7.10;;;3.97;;
4889;SDS011;2459;42.268;23.112;2022-10-03T05:33:08;10.17;;;4.13;;
4889;SDS011;2459;42.268;23.112;2022-10-03T05:35:44;17.60;;;7.40;;
4889;SDS011;2459;42.268;23.112;2022-10-03T05:38:19;16.43;;;7.00;;
4889;SDS011;2459;42.268;23.112;2022-10-03T05:40:50;10.60;;;3.40;;
4889;SDS011;2459;42.268;23.112;2022-10-03T05:43:26;10.63;;;4.30;;
4889;SDS011;2459;42.268;23.112;2022-10-03T05:46:02;16.67;;;4.13;;
4889;SDS011;2459;42.268;23.112;2022-10-03T05:48:39;7.93;;;3.40;;
4889;SDS011;2459;42.268;23.112;2022-10-03T05:54:33;9.73;;;3.50;;
4889;SDS011;2459;42.268;23.112;2022-10-03T06:00:01;19.00;;;3.60;;
4889;SDS011;2459;42.268;23.112;2022-10-03T06:02:44;11.47;;;3.90;;
4889;SDS011;2459;42.268;23.112;2022-10-03T06:05:21;23.47;;;3.83;;
4889;SDS011;2459;42.268;23.112;2022-10-03T06:07:59;16.70;;;2.73;;
4889;SDS011;2459;42.268;23.112;2022-10-03T06:10:41;7.30;;;3.30;;
4889;SDS011;2459;42.268;23.112;2022-10-03T06:13:09;8.37;;;3.50;;
4889;SDS011;2459;42.268;23.112;2022-10-03T06:15:46;58.10;;;4.40;;
4889;SDS011;2459;42.268;23.112;2022-10-03T06:26:50;18.80;;;4.13;;
4889;SDS011;2459;42.268;23.112;2022-10-03T06:32:22;8.33;;;3.80;;
4889;SDS011;2459;42.268;23.112;2022-10-03T06:43:12;28.80;;;4.33;;
4889;SDS011;2459;42.268;23.112;2022-10-03T06:48:33;20.20;;;4.40;;
4889;SDS011;2459;42.268;23.112;2022-10-03T06:51:07;10.83;;;5.47;;
4889;SDS011;2459;42.268;23.112;2022-10-03T06:53:43;8.03;;;3.73;;
4889;SDS011;2459;42.268;23.112;2022-10-03T07:02:04;16.00;;;7.67;;
4889;SDS011;2459;42.268;23.112;2022-10-03T07:07:38;19.23;;;8.53;;
4889;SDS011;2459;42.268;23.112;2022-10-03T07:10:20;18.33;;;7.20;;
4889;SDS011;2459;42.268;23.112;2022-10-03T07:13:02;17.90;;;5.83;;
4889;SDS011;2459;42.268;23.112;2022-10-03T07:18:52;15.77;;;5.70;;
4889;SDS011;2459;42.268;23.112;2022-10-03T07:24:18;8.60;;;4.80;;
4889;SDS011;2459;42.268;23.112;2022-10-03T07:29:39;19.40;;;8.13;;
4889;SDS011;2459;42.268;23.112;2022-10-03T07:35:13;27.70;;;6.10;;
4889;SDS011;2459;42.268;23.112;2022-10-03T07:37:48;24.20;;;8.10;;
4889;SDS011;2459;42.268;23.112;2022-10-03T07:40:50;11.80;;;7.03;;
4889;SDS011;2459;42.268;23.112;2022-10-03T07:43:30;20.53;;;7.77;;
4889;SDS011;2459;42.268;23.112;2022-10-03T07:46:13;51.13;;;10.20;;
4889;SDS011;2459;42.268;23.112;2022-10-03T07:48:49;28.13;;;8.80;;
4889;SDS011;2459;42.268;23.112;2022-10-03T07:51:22;24.63;;;7.47;;
4889;SDS011;2459;42.268;23.112;2022-10-03T08:02:36;18.93;;;5.67;;
4889;SDS011;2459;42.268;23.112;2022-10-03T08:05:07;16.80;;;7.60;;
4889;SDS011;2459;42.268;23.112;2022-10-03T08:07:45;22.83;;;5.40;;
4889;SDS011;2459;42.268;23.112;2022-10-03T08:10:30;11.30;;;4.03;;
4889;SDS011;2459;42.268;23.112;2022-10-03T08:13:04;13.27;;;5.03;;
4889;SDS011;2459;42.268;23.112;2022-10-03T08:15:41;22.10;;;5.60;;
4889;SDS011;2459;42.268;23.112;2022-10-03T08:18:20;11.63;;;5.40;;
4889;SDS011;2459;42.268;23.112;2022-10-03T08:20:51;17.50;;;5.10;;
4889;SDS011;2459;42.268;23.112;2022-10-03T08:26:07;35.90;;;8.00;;
4889;SDS011;2459;42.268;23.112;2022-10-03T08:37:05;14.67;;;4.07;;
4889;SDS011;2459;42.268;23.112;2022-10-03T08:39:45;17.87;;;4.20;;
4889;SDS011;2459;42.268;23.112;2022-10-03T08:42:25;20.37;;;6.33;;
4889;SDS011;2459;42.268;23.112;2022-10-03T08:50:38;20.57;;;5.20;;
4889;SDS011;2459;42.268;23.112;2022-10-03T08:53:17;21.23;;;3.83;;
4889;SDS011;2459;42.268;23.112;2022-10-03T08:55:51;20.67;;;4.50;;
4889;SDS011;2459;42.268;23.112;2022-10-03T09:01:14;10.77;;;3.90;;
4889;SDS011;2459;42.268;23.112;2022-10-03T09:12:06;5.97;;;2.83;;
4889;SDS011;2459;42.268;23.112;2022-10-03T09:14:48;13.47;;;3.30;;
4889;SDS011;2459;42.268;23.112;2022-10-03T09:17:22;6.33;;;2.60;;
4889;SDS011;2459;42.268;23.112;2022-10-03T09:22:59;15.30;;;3.83;;
4889;SDS011;2459;42.268;23.112;2022-10-03T09:25:32;13.63;;;4.17;;
4889;SDS011;2459;42.268;23.112;2022-10-03T09:30:54;14.87;;;2.73;;
4889;SDS011;2459;42.268;23.112;2022-10-03T09:44:47;16.80;;;4.07;;
4889;SDS011;2459;42.268;23.112;2022-10-03T09:50:22;11.83;;;3.33;;
4889;SDS011;2459;42.268;23.112;2022-10-03T09:53:06;14.20;;;3.50;;
4889;SDS011;2459;42.268;23.112;2022-10-03T09:55:42;11.70;;;4.10;;
4889;SDS011;2459;42.268;23.112;2022-10-03T09:58:21;8.27;;;4.70;;
4889;SDS011;2459;42.268;23.112;2022-10-03T10:06:29;16.23;;;5.73;;
4889;SDS011;2459;42.268;23.112;2022-10-03T10:14:47;13.17;;;4.73;;
4889;SDS011;2459;42.268;23.112;2022-10-03T10:20:19;8.53;;;4.60;;
4889;SDS011;2459;42.268;23.112;2022-10-03T10:25:41;14.83;;;2.80;;
4889;SDS011;2459;42.268;23.112;2022-10-03T10:28:27;33.03;;;3.50;;
4889;SDS011;2459;42.268;23.112;2022-10-03T10:31:11;19.50;;;4.83;;
4889;SDS011;2459;42.268;23.112;2022-10-03T10:42:16;12.83;;;3.87;;
4889;SDS011;2459;42.268;23.112;2022-10-03T10:55:58;3.40;;;3.00;;
4889;SDS011;2459;42.268;23.112;2022-10-03T11:01:34;12.30;;;3.53;;
4889;SDS011;2459;42.268;23.112;2022-10-03T11:04:25;7.73;;;3.00;;
4889;SDS011;2459;42.268;23.112;2022-10-03T11:07:15;3.83;;;2.00;;
4889;SDS011;2459;42.268;23.112;2022-10-03T11:23:57;2.13;;;2.03;;
4889;SDS011;2459;42.268;23.112;2022-10-03T11:26:38;2.57;;;2.33;;
4889;SDS011;2459;42.268;23.112;2022-10-03T11:29:15;5.70;;;2.03;;
4889;SDS011;2459;42.268;23.112;2022-10-03T11:34:59;4.00;;;2.07;;
4889;SDS011;2459;42.268;23.112;2022-10-03T11:37:35;7.27;;;3.00;;
4889;SDS011;2459;42.268;23.112;2022-10-03T11:40:12;3.80;;;2.20;;
4889;SDS011;2459;42.268;23.112;2022-10-03T11:42:47;3.80;;;2.07;;
4889;SDS011;2459;42.268;23.112;2022-10-03T11:45:17;4.63;;;2.17;;
4889;SDS011;2459;42.268;23.112;2022-10-03T11:47:52;2.20;;;2.10;;
4889;SDS011;2459;42.268;23.112;2022-10-03T11:50:26;3.43;;;2.63;;
4889;SDS011;2459;42.268;23.112;2022-10-03T11:53:06;3.07;;;2.37;;
4889;SDS011;2459;42.268;23.112;2022-10-03T11:55:36;5.70;;;2.40;;
4889;SDS011;2459;42.268;23.112;2022-10-03T11:58:23;3.50;;;2.60;;
4889;SDS011;2459;42.268;23.112;2022-10-03T12:00:51;5.40;;;2.47;;
4889;SDS011;2459;42.268;23.112;2022-10-03T12:03:21;2.27;;;2.10;;
4889;SDS011;2459;42.268;23.112;2022-10-03T12:05:52;2.73;;;2.37;;
4889;SDS011;2459;42.268;23.112;2022-10-03T12:08:40;4.30;;;2.60;;
4889;SDS011;2459;42.268;23.112;2022-10-03T12:11:23;3.40;;;2.30;;
4889;SDS011;2459;42.268;23.112;2022-10-03T12:14:02;2.27;;;2.13;;
4889;SDS011;2459;42.268;23.112;2022-10-03T12:16:34;3.00;;;2.07;;
4889;SDS011;2459;42.268;23.112;2022-10-03T12:19:04;2.30;;;2.20;;
4889;SDS011;2459;42.268;23.112;2022-10-03T12:21:38;3.10;;;2.50;;
4889;SDS011;2459;42.268;23.112;2022-10-03T12:24:13;6.13;;;3.00;;
4889;SDS011;2459;42.268;23.112;2022-10-03T12:26:49;3.40;;;3.10;;
4889;SDS011;2459;42.268;23.112;2022-10-03T12:29:19;2.30;;;2.20;;
4889;SDS011;2459;42.268;23.112;2022-10-03T12:31:48;10.30;;;4.30;;
4889;SDS011;2459;42.268;23.112;2022-10-03T12:34:31;2.50;;;2.30;;
4889;SDS011;2459;42.268;23.112;2022-10-03T12:37:06;2.50;;;2.40;;
4889;SDS011;2459;42.268;23.112;2022-10-03T12:39:38;2.17;;;2.07;;
4889;SDS011;2459;42.268;23.112;2022-10-03T12:42:19;3.40;;;2.77;;
4889;SDS011;2459;42.268;23.112;2022-10-03T12:44:52;3.37;;;3.00;;
4889;SDS011;2459;42.268;23.112;2022-10-03T12:47:26;5.90;;;2.63;;
4889;SDS011;2459;42.268;23.112;2022-10-03T12:49:56;2.30;;;2.10;;
4889;SDS011;2459;42.268;23.112;2022-10-03T12:52:27;2.20;;;2.10;;
4889;SDS011;2459;42.268;23.112;2022-10-03T12:55:00;2.63;;;2.43;;
4889;SDS011;2459;42.268;23.112;2022-10-03T13:00:18;2.93;;;2.70;;
4889;SDS011;2459;42.268;23.112;2022-10-03T13:02:46;2.87;;;2.60;;
4889;SDS011;2459;42.268;23.112;2022-10-03T13:05:23;3.23;;;2.93;;
4889;SDS011;2459;42.268;23.112;2022-10-03T13:07:55;3.30;;;2.80;;
4889;SDS011;2459;42.268;23.112;2022-10-03T13:10:24;2.10;;;2.00;;
4889;SDS011;2459;42.268;23.112;2022-10-03T13:12:56;3.40;;;3.10;;
4889;SDS011;2459;42.268;23.112;2022-10-03T13:15:36;4.13;;;2.40;;
4889;SDS011;2459;42.268;23.112;2022-10-03T13:18:06;2.30;;;2.00;;
4889;SDS011;2459;42.268;23.112;2022-10-03T13:20:35;2.63;;;2.50;;
4889;SDS011;2459;42.268;23.112;2022-10-03T13:23:03;3.37;;;3.07;;
4889;SDS011;2459;42.268;23.112;2022-10-03T13:25:33;6.03;;;3.70;;
4889;SDS011;2459;42.268;23.112;2022-10-03T13:28:05;3.10;;;2.90;;
4889;SDS011;2459;42.268;23.112;2022-10-03T13:30:44;2.80;;;2.30;;
4889;SDS011;2459;42.268;23.112;2022-10-03T13:33:15;5.10;;;3.10;;
4889;SDS011;2459;42.268;23.112;2022-10-03T13:35:44;2.87;;;2.67;;
4889;SDS011;2459;42.268;23.112;2022-10-03T13:41:14;4.30;;;4.00;;
4889;SDS011;2459;42.268;23.112;2022-10-03T13:43:42;2.90;;;2.60;;
4889;SDS011;2459;42.268;23.112;2022-10-03T13:46:12;2.70;;;2.50;;
4889;SDS011;2459;42.268;23.112;2022-10-03T13:48:40;3.20;;;3.00;;
4889;SDS011;2459;42.268;23.112;2022-10-03T13:51:12;3.60;;;3.40;;
4889;SDS011;2459;42.268;23.112;2022-10-03T13:53:46;4.23;;;3.87;;
4889;SDS011;2459;42.268;23.112;2022-10-03T13:56:17;3.70;;;3.50;;
4889;SDS011;2459;42.268;23.112;2022-10-03T13:58:51;3.47;;;3.27;;
4889;SDS011;2459;42.268;23.112;2022-10-03T14:01:31;3.20;;;2.90;;
4889;SDS011;2459;42.268;23.112;2022-10-03T14:06:50;2.93;;;2.67;;
4889;SDS011;2459;42.268;23.112;2022-10-03T14:09:26;3.70;;;3.40;;
4889;SDS011;2459;42.268;23.112;2022-10-03T14:11:58;3.40;;;3.20;;
4889;SDS011;2459;42.268;23.112;2022-10-03T14:14:45;3.30;;;3.00;;
4889;SDS011;2459;42.268;23.112;2022-10-03T14:17:17;3.30;;;3.00;;
4889;SDS011;2459;42.268;23.112;2022-10-03T14:19:52;3.47;;;3.17;;
4889;SDS011;2459;42.268;23.112;2022-10-03T14:22:23;3.53;;;3.23;;
4889;SDS011;2459;42.268;23.112;2022-10-03T14:24:56;3.93;;;3.53;;
4889;SDS011;2459;42.268;23.112;2022-10-03T14:27:36;2.93;;;2.50;;
4889;SDS011;2459;42.268;23.112;2022-10-03T14:30:08;2.90;;;2.70;;
4889;SDS011;2459;42.268;23.112;2022-10-03T14:32:42;2.97;;;2.50;;
4889;SDS011;2459;42.268;23.112;2022-10-03T14:35:14;5.03;;;4.63;;
4889;SDS011;2459;42.268;23.112;2022-10-03T14:37:45;2.90;;;2.70;;
4889;SDS011;2459;42.268;23.112;2022-10-03T14:40:17;3.03;;;2.63;;
4889;SDS011;2459;42.268;23.112;2022-10-03T14:42:55;3.53;;;2.80;;
4889;SDS011;2459;42.268;23.112;2022-10-03T14:45:24;3.10;;;2.90;;
4889;SDS011;2459;42.268;23.112;2022-10-03T14:47:55;4.63;;;2.77;;
4889;SDS011;2459;42.268;23.112;2022-10-03T14:50:23;3.30;;;2.63;;
4889;SDS011;2459;42.268;23.112;2022-10-03T14:52:51;2.40;;;2.20;;
4889;SDS011;2459;42.268;23.112;2022-10-03T14:55:26;3.17;;;2.97;;
4889;SDS011;2459;42.268;23.112;2022-10-03T14:57:57;3.40;;;3.10;;
4889;SDS011;2459;42.268;23.112;2022-10-03T15:00:31;3.03;;;2.33;;
4889;SDS011;2459;42.268;23.112;2022-10-03T15:03:17;2.77;;;2.57;;
4889;SDS011;2459;42.268;23.112;2022-10-03T15:05:54;6.77;;;2.43;;
4889;SDS011;2459;42.268;23.112;2022-10-03T15:08:22;2.93;;;2.60;;
4889;SDS011;2459;42.268;23.112;2022-10-03T15:10:50;3.07;;;2.87;;
4889;SDS011;2459;42.268;23.112;2022-10-03T15:13:18;2.27;;;2.17;;
4889;SDS011;2459;42.268;23.112;2022-10-03T15:15:47;4.20;;;2.57;;
4889;SDS011;2459;42.268;23.112;2022-10-03T15:18:18;3.20;;;2.40;;
4889;SDS011;2459;42.268;23.112;2022-10-03T15:20:47;2.67;;;2.47;;
4889;SDS011;2459;42.268;23.112;2022-10-03T15:23:17;9.30;;;4.70;;
4889;SDS011;2459;42.268;23.112;2022-10-03T15:25:44;4.47;;;4.03;;
4889;SDS011;2459;42.268;23.112;2022-10-03T15:28:18;7.57;;;3.73;;
4889;SDS011;2459;42.268;23.112;2022-10-03T15:30:45;3.17;;;2.90;;
4889;SDS011;2459;42.268;23.112;2022-10-03T15:33:13;3.10;;;2.90;;
4889;SDS011;2459;42.268;23.112;2022-10-03T15:35:43;3.00;;;2.80;;
4889;SDS011;2459;42.268;23.112;2022-10-03T15:38:12;4.50;;;2.60;;
4889;SDS011;2459;42.268;23.112;2022-10-03T15:40:40;5.73;;;5.10;;
4889;SDS011;2459;42.268;23.112;2022-10-03T15:43:14;3.10;;;2.83;;
4889;SDS011;2459;42.268;23.112;2022-10-03T15:45:42;2.70;;;2.50;;
4889;SDS011;2459;42.268;23.112;2022-10-03T15:48:09;3.73;;;3.10;;
4889;SDS011;2459;42.268;23.112;2022-10-03T15:50:37;6.93;;;3.00;;
4889;SDS011;2459;42.268;23.112;2022-10-03T15:53:07;8.43;;;3.27;;
4889;SDS011;2459;42.268;23.112;2022-10-03T15:55:35;3.10;;;2.53;;
4889;SDS011;2459;42.268;23.112;2022-10-03T15:58:07;3.23;;;2.50;;
4889;SDS011;2459;42.268;23.112;2022-10-03T16:00:36;8.93;;;6.20;;
4889;SDS011;2459;42.268;23.112;2022-10-03T16:03:06;8.13;;;3.57;;
4889;SDS011;2459;42.268;23.112;2022-10-03T16:05:34;4.83;;;4.00;;
4889;SDS011;2459;42.268;23.112;2022-10-03T16:08:03;5.67;;;4.70;;
4889;SDS011;2459;42.268;23.112;2022-10-03T16:10:32;4.33;;;3.93;;
4889;SDS011;2459;42.268;23.112;2022-10-03T16:13:00;8.03;;;4.00;;
4889;SDS011;2459;42.268;23.112;2022-10-03T16:15:34;8.40;;;4.50;;
4889;SDS011;2459;42.268;23.112;2022-10-03T16:18:04;8.03;;;5.57;;
4889;SDS011;2459;42.268;23.112;2022-10-03T16:20:35;18.60;;;10.63;;
4889;SDS011;2459;42.268;23.112;2022-10-03T16:23:08;6.63;;;4.10;;
4889;SDS011;2459;42.268;23.112;2022-10-03T16:25:40;12.93;;;8.30;;
4889;SDS011;2459;42.268;23.112;2022-10-03T16:28:10;6.80;;;4.63;;
4889;SDS011;2459;42.268;23.112;2022-10-03T16:30:39;6.23;;;5.63;;
4889;SDS011;2459;42.268;23.112;2022-10-03T16:33:10;6.93;;;6.10;;
4889;SDS011;2459;42.268;23.112;2022-10-03T16:35:40;5.30;;;4.17;;
4889;SDS011;2459;42.268;23.112;2022-10-03T16:38:13;7.00;;;4.23;;
4889;SDS011;2459;42.268;23.112;2022-10-03T16:40:42;6.33;;;4.47;;
4889;SDS011;2459;42.268;23.112;2022-10-03T16:43:15;5.67;;;4.60;;
4889;SDS011;2459;42.268;23.112;2022-10-03T16:45:42;9.40;;;4.70;;
4889;SDS011;2459;42.268;23.112;2022-10-03T16:48:10;11.30;;;4.00;;
4889;SDS011;2459;42.268;23.112;2022-10-03T16:50:55;7.77;;;5.40;;
4889;SDS011;2459;42.268;23.112;2022-10-03T16:53:23;4.70;;;4.03;;
4889;SDS011;2459;42.268;23.112;2022-10-03T16:55:51;8.07;;;3.80;;
4889;SDS011;2459;42.268;23.112;2022-10-03T16:58:19;5.60;;;4.40;;
4889;SDS011;2459;42.268;23.112;2022-10-03T17:00:49;5.90;;;3.67;;
4889;SDS011;2459;42.268;23.112;2022-10-03T17:03:18;4.10;;;3.70;;
4889;SDS011;2459;42.268;23.112;2022-10-03T17:05:45;5.93;;;4.73;;
4889;SDS011;2459;42.268;23.112;2022-10-03T17:08:12;13.13;;;8.10;;
4889;SDS011;2459;42.268;23.112;2022-10-03T17:10:39;6.87;;;4.37;;
4889;SDS011;2459;42.268;23.112;2022-10-03T17:13:11;6.30;;;4.23;;
4889;SDS011;2459;42.268;23.112;2022-10-03T17:15:43;6.00;;;3.80;;
4889;SDS011;2459;42.268;23.112;2022-10-03T17:18:17;14.53;;;5.20;;
4889;SDS011;2459;42.268;23.112;2022-10-03T17:20:48;7.20;;;4.20;;
4889;SDS011;2459;42.268;23.112;2022-10-03T17:23:19;5.27;;;4.13;;
4889;SDS011;2459;42.268;23.112;2022-10-03T17:25:48;4.60;;;3.93;;
4889;SDS011;2459;42.268;23.112;2022-10-03T17:28:22;7.40;;;3.83;;
4889;SDS011;2459;42.268;23.112;2022-10-03T17:30:53;4.33;;;3.30;;
4889;SDS011;2459;42.268;23.112;2022-10-03T17:33:21;10.70;;;4.60;;
4889;SDS011;2459;42.268;23.112;2022-10-03T17:35:51;7.20;;;4.13;;
4889;SDS011;2459;42.268;23.112;2022-10-03T17:38:22;34.00;;;13.57;;
4889;SDS011;2459;42.268;23.112;2022-10-03T17:40:57;23.93;;;10.70;;
4889;SDS011;2459;42.268;23.112;2022-10-03T17:43:32;14.13;;;7.43;;
4889;SDS011;2459;42.268;23.112;2022-10-03T17:46:04;11.40;;;5.53;;
4889;SDS011;2459;42.268;23.112;2022-10-03T17:48:36;20.87;;;9.67;;
4889;SDS011;2459;42.268;23.112;2022-10-03T17:51:21;18.67;;;9.47;;
4889;SDS011;2459;42.268;23.112;2022-10-03T17:53:50;22.20;;;9.93;;
4889;SDS011;2459;42.268;23.112;2022-10-03T17:56:18;20.40;;;6.83;;
4889;SDS011;2459;42.268;23.112;2022-10-03T17:58:48;8.43;;;5.67;;
4889;SDS011;2459;42.268;23.112;2022-10-03T18:01:16;10.00;;;3.80;;
4889;SDS011;2459;42.268;23.112;2022-10-03T18:03:45;4.73;;;4.03;;
4889;SDS011;2459;42.268;23.112;2022-10-03T18:08:58;5.43;;;3.70;;
4889;SDS011;2459;42.268;23.112;2022-10-03T18:11:26;3.37;;;2.97;;
4889;SDS011;2459;42.268;23.112;2022-10-03T18:13:57;3.13;;;2.83;;
4889;SDS011;2459;42.268;23.112;2022-10-03T18:16:28;9.40;;;4.80;;
4889;SDS011;2459;42.268;23.112;2022-10-03T18:19:04;16.03;;;7.50;;
4889;SDS011;2459;42.268;23.112;2022-10-03T18:21:39;15.57;;;5.90;;
4889;SDS011;2459;42.268;23.112;2022-10-03T18:24:12;5.43;;;4.37;;
4889;SDS011;2459;42.268;23.112;2022-10-03T18:26:42;6.30;;;3.40;;
4889;SDS011;2459;42.268;23.112;2022-10-03T18:29:14;42.60;;;12.40;;
4889;SDS011;2459;42.268;23.112;2022-10-03T18:31:43;15.23;;;5.17;;
4889;SDS011;2459;42.268;23.112;2022-10-03T18:34:13;26.50;;;6.67;;
4889;SDS011;2459;42.268;23.112;2022-10-03T18:36:44;16.43;;;5.83;;
4889;SDS011;2459;42.268;23.112;2022-10-03T18:39:13;6.70;;;3.57;;
4889;SDS011;2459;42.268;23.112;2022-10-03T18:41:41;5.50;;;3.20;;
4889;SDS011;2459;42.268;23.112;2022-10-03T18:44:11;5.17;;;3.40;;
4889;SDS011;2459;42.268;23.112;2022-10-03T18:46:42;7.27;;;3.00;;
4889;SDS011;2459;42.268;23.112;2022-10-03T18:49:14;3.50;;;3.27;;
4889;SDS011;2459;42.268;23.112;2022-10-03T18:51:43;4.77;;;3.70;;
4889;SDS011;2459;42.268;23.112;2022-10-03T18:54:18;4.90;;;2.90;;
4889;SDS011;2459;42.268;23.112;2022-10-03T18:56:56;3.17;;;2.70;;
4889;SDS011;2459;42.268;23.112;2022-10-03T18:59:28;5.73;;;2.83;;
4889;SDS011;2459;42.268;23.112;2022-10-03T19:02:00;6.23;;;3.80;;